sensor_id;sensor_type;location;lat;lon;timestamp;temperature;humidity
4635;DHT22;2330;48.158;11.816;2022-09-30T00:00:55;8.00;98.50
4635;DHT22;2330;48.158;11.816;2022-09-30T00:03:22;7.90;98.50
4635;DHT22;2330;48.158;11.816;2022-09-30T00:06:00;7.90;98.50
4635;DHT22;2330;48.158;11.816;2022-09-30T00:08:35;7.90;98.50
4635;DHT22;2330;48.158;11.816;2022-09-30T00:11:13;7.90;98.50
4635;DHT22;2330;48.158;11.816;2022-09-30T00:13:42;8.00;98.50
4635;DHT22;2330;48.158;11.816;2022-09-30T00:16:11;8.00;98.50
4635;DHT22;2330;48.158;11.816;2022-09-30T00:18:38;7.90;98.50
4635;DHT22;2330;48.158;11.816;2022-09-30T00:21:06;7.90;98.50
4635;DHT22;2330;48.158;11.816;2022-09-30T00:23:34;7.90;98.50
4635;DHT22;2330;48.158;11.816;2022-09-30T00:26:07;8.00;98.50
4635;DHT22;2330;48.158;11.816;2022-09-30T00:28:35;8.00;98.50
4635;DHT22;2330;48.158;11.816;2022-09-30T00:31:04;8.00;98.50
4635;DHT22;2330;48.158;11.816;2022-09-30T00:33:35;8.00;98.50
4635;DHT22;2330;48.158;11.816;2022-09-30T00:36:02;8.00;98.50
4635;DHT22;2330;48.158;11.816;2022-09-30T00:38:29;8.00;98.50
4635;DHT22;2330;48.158;11.816;2022-09-30T00:40:56;8.10;98.50
4635;DHT22;2330;48.158;11.816;2022-09-30T00:43:57;8.10;98.50
4635;DHT22;2330;48.158;11.816;2022-09-30T00:46:39;8.10;98.50
4635;DHT22;2330;48.158;11.816;2022-09-30T00:49:18;8.10;98.50
4635;DHT22;2330;48.158;11.816;2022-09-30T00:51:53;8.10;98.50
4635;DHT22;2330;48.158;11.816;2022-09-30T00:54:28;8.10;98.50
4635;DHT22;2330;48.158;11.816;2022-09-30T00:56:58;8.10;98.50
4635;DHT22;2330;48.158;11.816;2022-09-30T00:59:33;8.10;98.50
4635;DHT22;2330;48.158;11.816;2022-09-30T01:02:04;8.10;98.50
4635;DHT22;2330;48.158;11.816;2022-09-30T01:04:34;8.10;98.50
4635;DHT22;2330;48.158;11.816;2022-09-30T01:07:04;8.10;98.50
4635;DHT22;2330;48.158;11.816;2022-09-30T01:09:36;8.10;98.50
4635;DHT22;2330;48.158;11.816;2022-09-30T01:12:10;8.00;98.50
4635;DHT22;2330;48.158;11.816;2022-09-30T01:14:39;8.00;98.50
4635;DHT22;2330;48.158;11.816;2022-09-30T01:28:10;8.10;98.50
4635;DHT22;2330;48.158;11.816;2022-09-30T01:36:26;8.10;98.50
4635;DHT22;2330;48.158;11.816;2022-09-30T01:39:26;8.10;98.50
4635;DHT22;2330;48.158;11.816;2022-09-30T01:42:03;8.00;98.50
4635;DHT22;2330;48.158;11.816;2022-09-30T01:47:11;8.10;98.50
4635;DHT22;2330;48.158;11.816;2022-09-30T01:49:46;8.10;98.50
4635;DHT22;2330;48.158;11.816;2022-09-30T01:52:30;8.10;98.50
4635;DHT22;2330;48.158;11.816;2022-09-30T01:55:16;8.10;98.50
4635;DHT22;2330;48.158;11.816;2022-09-30T02:00:20;8.10;98.50
4635;DHT22;2330;48.158;11.816;2022-09-30T02:03:01;8.10;98.50
4635;DHT22;2330;48.158;11.816;2022-09-30T02:05:59;8.10;98.50
4635;DHT22;2330;48.158;11.816;2022-09-30T02:08:31;8.10;98.50
4635;DHT22;2330;48.158;11.816;2022-09-30T02:11:04;8.10;98.50
4635;DHT22;2330;48.158;11.816;2022-09-30T02:13:50;8.10;98.50
4635;DHT22;2330;48.158;11.816;2022-09-30T02:16:26;8.00;98.50
4635;DHT22;2330;48.158;11.816;2022-09-30T02:22:11;8.00;98.50
4635;DHT22;2330;48.158;11.816;2022-09-30T02:24:38;8.00;98.50
4635;DHT22;2330;48.158;11.816;2022-09-30T02:27:14;8.00;98.50
4635;DHT22;2330;48.158;11.816;2022-09-30T02:29:47;7.90;98.50
4635;DHT22;2330;48.158;11.816;2022-09-30T02:32:30;7.90;98.50
4635;DHT22;2330;48.158;11.816;2022-09-30T02:35:03;7.90;98.50
4635;DHT22;2330;48.158;11.816;2022-09-30T02:38:19;7.90;98.50
4635;DHT22;2330;48.158;11.816;2022-09-30T02:43:03;7.90;98.50
4635;DHT22;2330;48.158;11.816;2022-09-30T02:45:34;7.90;98.50
4635;DHT22;2330;48.158;11.816;2022-09-30T02:51:00;7.90;98.50
4635;DHT22;2330;48.158;11.816;2022-09-30T02:53:32;7.80;98.50
4635;DHT22;2330;48.158;11.816;2022-09-30T02:58:38;7.80;98.50
4635;DHT22;2330;48.158;11.816;2022-09-30T03:01:12;7.80;98.50
4635;DHT22;2330;48.158;11.816;2022-09-30T03:03:54;7.70;98.50
4635;DHT22;2330;48.158;11.816;2022-09-30T03:06:21;7.70;98.50
4635;DHT22;2330;48.158;11.816;2022-09-30T03:08:48;7.70;98.50
4635;DHT22;2330;48.158;11.816;2022-09-30T03:11:19;7.70;98.50
4635;DHT22;2330;48.158;11.816;2022-09-30T03:16:23;7.70;98.50
4635;DHT22;2330;48.158;11.816;2022-09-30T03:21:52;7.70;98.50
4635;DHT22;2330;48.158;11.816;2022-09-30T03:30:15;7.70;98.50
4635;DHT22;2330;48.158;11.816;2022-09-30T03:35:31;7.70;98.50
4635;DHT22;2330;48.158;11.816;2022-09-30T03:40:56;7.60;98.50
4635;DHT22;2330;48.158;11.816;2022-09-30T03:43:33;7.60;98.50
4635;DHT22;2330;48.158;11.816;2022-09-30T03:48:50;7.70;98.50
4635;DHT22;2330;48.158;11.816;2022-09-30T03:51:18;7.70;98.50
4635;DHT22;2330;48.158;11.816;2022-09-30T03:53:46;7.70;98.50
4635;DHT22;2330;48.158;11.816;2022-09-30T03:56:13;7.70;98.50
4635;DHT22;2330;48.158;11.816;2022-09-30T03:58:42;7.70;98.50
4635;DHT22;2330;48.158;11.816;2022-09-30T04:01:17;7.70;98.50
4635;DHT22;2330;48.158;11.816;2022-09-30T04:03:46;7.70;98.50
4635;DHT22;2330;48.158;11.816;2022-09-30T04:06:13;7.70;98.50
4635;DHT22;2330;48.158;11.816;2022-09-30T04:08:40;7.70;98.50
4635;DHT22;2330;48.158;11.816;2022-09-30T04:11:07;7.70;98.50
4635;DHT22;2330;48.158;11.816;2022-09-30T04:13:33;7.70;98.50
4635;DHT22;2330;48.158;11.816;2022-09-30T04:16:00;7.70;98.50
4635;DHT22;2330;48.158;11.816;2022-09-30T04:18:27;7.70;98.50
4635;DHT22;2330;48.158;11.816;2022-09-30T04:20:57;7.70;98.50
4635;DHT22;2330;48.158;11.816;2022-09-30T04:23:24;7.70;98.50
4635;DHT22;2330;48.158;11.816;2022-09-30T04:25:54;7.60;98.50
4635;DHT22;2330;48.158;11.816;2022-09-30T04:28:21;7.70;98.50
4635;DHT22;2330;48.158;11.816;2022-09-30T04:30:48;7.70;98.50
4635;DHT22;2330;48.158;11.816;2022-09-30T04:33:15;7.70;98.50
4635;DHT22;2330;48.158;11.816;2022-09-30T04:35:42;7.60;98.50
4635;DHT22;2330;48.158;11.816;2022-09-30T04:38:08;7.70;98.50
4635;DHT22;2330;48.158;11.816;2022-09-30T04:40:38;7.70;98.50
4635;DHT22;2330;48.158;11.816;2022-09-30T04:43:05;7.70;98.50
4635;DHT22;2330;48.158;11.816;2022-09-30T04:45:32;7.60;98.50
4635;DHT22;2330;48.158;11.816;2022-09-30T04:47:59;7.60;98.50
4635;DHT22;2330;48.158;11.816;2022-09-30T04:50:26;7.60;98.50
4635;DHT22;2330;48.158;11.816;2022-09-30T04:52:52;7.60;98.50
4635;DHT22;2330;48.158;11.816;2022-09-30T04:55:21;7.60;98.50
4635;DHT22;2330;48.158;11.816;2022-09-30T04:57:48;7.60;98.50
4635;DHT22;2330;48.158;11.816;2022-09-30T05:00:15;7.60;98.50
4635;DHT22;2330;48.158;11.816;2022-09-30T05:02:43;7.60;98.50
4635;DHT22;2330;48.158;11.816;2022-09-30T05:05:10;7.60;98.50
4635;DHT22;2330;48.158;11.816;2022-09-30T05:07:37;7.60;98.50
4635;DHT22;2330;48.158;11.816;2022-09-30T05:10:04;7.60;98.50
4635;DHT22;2330;48.158;11.816;2022-09-30T05:12:30;7.60;98.50
4635;DHT22;2330;48.158;11.816;2022-09-30T05:14:57;7.60;98.50
4635;DHT22;2330;48.158;11.816;2022-09-30T05:17:24;7.60;98.50
4635;DHT22;2330;48.158;11.816;2022-09-30T05:19:51;7.60;98.50
4635;DHT22;2330;48.158;11.816;2022-09-30T05:22:17;7.60;98.50
4635;DHT22;2330;48.158;11.816;2022-09-30T05:24:44;7.60;98.50
4635;DHT22;2330;48.158;11.816;2022-09-30T05:27:11;7.60;98.50
4635;DHT22;2330;48.158;11.816;2022-09-30T05:29:37;7.60;98.50
4635;DHT22;2330;48.158;11.816;2022-09-30T05:32:04;7.60;98.50
4635;DHT22;2330;48.158;11.816;2022-09-30T05:34:31;7.70;98.50
4635;DHT22;2330;48.158;11.816;2022-09-30T05:36:58;7.70;98.50
4635;DHT22;2330;48.158;11.816;2022-09-30T05:39:24;7.70;98.50
4635;DHT22;2330;48.158;11.816;2022-09-30T05:41:51;7.70;98.50
4635;DHT22;2330;48.158;11.816;2022-09-30T05:44:18;7.70;98.50
4635;DHT22;2330;48.158;11.816;2022-09-30T05:46:45;7.70;98.50
4635;DHT22;2330;48.158;11.816;2022-09-30T05:49:11;7.70;98.50
4635;DHT22;2330;48.158;11.816;2022-09-30T05:51:38;7.80;98.50
4635;DHT22;2330;48.158;11.816;2022-09-30T05:54:05;7.80;98.50
4635;DHT22;2330;48.158;11.816;2022-09-30T05:56:32;7.90;98.50
4635;DHT22;2330;48.158;11.816;2022-09-30T05:59:00;8.00;98.50
4635;DHT22;2330;48.158;11.816;2022-09-30T06:01:27;8.10;98.50
4635;DHT22;2330;48.158;11.816;2022-09-30T06:03:54;8.10;98.50
4635;DHT22;2330;48.158;11.816;2022-09-30T06:06:20;8.10;98.50
4635;DHT22;2330;48.158;11.816;2022-09-30T06:08:47;8.20;98.50
4635;DHT22;2330;48.158;11.816;2022-09-30T06:11:16;8.20;98.50
4635;DHT22;2330;48.158;11.816;2022-09-30T06:13:44;8.30;98.50
4635;DHT22;2330;48.158;11.816;2022-09-30T06:16:13;8.30;98.50
4635;DHT22;2330;48.158;11.816;2022-09-30T06:18:40;8.40;98.50
4635;DHT22;2330;48.158;11.816;2022-09-30T06:21:09;8.60;98.50
4635;DHT22;2330;48.158;11.816;2022-09-30T06:23:37;8.60;98.50
4635;DHT22;2330;48.158;11.816;2022-09-30T06:26:05;8.70;98.50
4635;DHT22;2330;48.158;11.816;2022-09-30T06:28:32;8.70;98.50
4635;DHT22;2330;48.158;11.816;2022-09-30T06:31:01;8.80;98.50
4635;DHT22;2330;48.158;11.816;2022-09-30T06:33:28;8.90;98.50
4635;DHT22;2330;48.158;11.816;2022-09-30T06:35:55;8.90;98.50
4635;DHT22;2330;48.158;11.816;2022-09-30T06:38:22;8.90;98.50
4635;DHT22;2330;48.158;11.816;2022-09-30T06:40:49;8.90;98.50
4635;DHT22;2330;48.158;11.816;2022-09-30T06:43:19;9.00;98.50
4635;DHT22;2330;48.158;11.816;2022-09-30T06:45:47;9.20;98.50
4635;DHT22;2330;48.158;11.816;2022-09-30T06:48:15;9.60;98.50
4635;DHT22;2330;48.158;11.816;2022-09-30T06:50:49;9.80;98.50
4635;DHT22;2330;48.158;11.816;2022-09-30T06:53:27;10.20;98.50
4635;DHT22;2330;48.158;11.816;2022-09-30T06:55:56;10.50;98.50
4635;DHT22;2330;48.158;11.816;2022-09-30T06:58:23;10.80;98.50
4635;DHT22;2330;48.158;11.816;2022-09-30T07:01:02;10.90;98.50
4635;DHT22;2330;48.158;11.816;2022-09-30T07:03:34;11.20;98.50
4635;DHT22;2330;48.158;11.816;2022-09-30T07:06:03;11.60;98.50
4635;DHT22;2330;48.158;11.816;2022-09-30T07:08:32;11.90;98.50
4635;DHT22;2330;48.158;11.816;2022-09-30T07:11:02;12.00;98.50
4635;DHT22;2330;48.158;11.816;2022-09-30T07:13:30;12.10;98.50
4635;DHT22;2330;48.158;11.816;2022-09-30T07:15:58;12.10;98.50
4635;DHT22;2330;48.158;11.816;2022-09-30T07:18:25;11.70;98.50
4635;DHT22;2330;48.158;11.816;2022-09-30T07:20:55;11.60;98.50
4635;DHT22;2330;48.158;11.816;2022-09-30T07:23:23;11.50;98.50
4635;DHT22;2330;48.158;11.816;2022-09-30T07:25:57;11.50;98.50
4635;DHT22;2330;48.158;11.816;2022-09-30T07:28:25;11.50;98.50
4635;DHT22;2330;48.158;11.816;2022-09-30T07:30:54;11.40;98.50
4635;DHT22;2330;48.158;11.816;2022-09-30T07:33:44;11.40;98.50
4635;DHT22;2330;48.158;11.816;2022-09-30T07:36:13;11.60;98.50
4635;DHT22;2330;48.158;11.816;2022-09-30T07:38:43;11.70;98.50
4635;DHT22;2330;48.158;11.816;2022-09-30T07:41:23;11.70;98.50
4635;DHT22;2330;48.158;11.816;2022-09-30T07:43:54;11.70;98.50
4635;DHT22;2330;48.158;11.816;2022-09-30T07:46:28;11.60;98.50
4635;DHT22;2330;48.158;11.816;2022-09-30T07:48:57;11.50;98.50
4635;DHT22;2330;48.158;11.816;2022-09-30T07:51:32;11.50;98.50
4635;DHT22;2330;48.158;11.816;2022-09-30T07:54:05;11.50;98.50
4635;DHT22;2330;48.158;11.816;2022-09-30T07:56:33;11.50;98.50
4635;DHT22;2330;48.158;11.816;2022-09-30T07:59:24;11.60;98.50
4635;DHT22;2330;48.158;11.816;2022-09-30T08:01:52;11.70;98.50
4635;DHT22;2330;48.158;11.816;2022-09-30T08:04:20;11.80;98.50
4635;DHT22;2330;48.158;11.816;2022-09-30T08:06:56;11.80;98.50
4635;DHT22;2330;48.158;11.816;2022-09-30T08:09:25;11.70;98.50
4635;DHT22;2330;48.158;11.816;2022-09-30T08:11:53;11.70;98.50
4635;DHT22;2330;48.158;11.816;2022-09-30T08:14:22;11.50;98.50
4635;DHT22;2330;48.158;11.816;2022-09-30T08:16:49;11.40;98.50
4635;DHT22;2330;48.158;11.816;2022-09-30T08:19:20;11.40;98.50
4635;DHT22;2330;48.158;11.816;2022-09-30T08:21:48;11.50;98.50
4635;DHT22;2330;48.158;11.816;2022-09-30T08:24:15;11.60;98.50
4635;DHT22;2330;48.158;11.816;2022-09-30T08:26:42;11.80;98.50
4635;DHT22;2330;48.158;11.816;2022-09-30T08:29:10;11.90;98.50
4635;DHT22;2330;48.158;11.816;2022-09-30T08:31:51;12.10;98.50
4635;DHT22;2330;48.158;11.816;2022-09-30T08:34:18;12.10;98.50
4635;DHT22;2330;48.158;11.816;2022-09-30T08:36:45;12.00;98.50
4635;DHT22;2330;48.158;11.816;2022-09-30T08:39:12;12.20;98.50
4635;DHT22;2330;48.158;11.816;2022-09-30T08:44:49;12.60;98.50
4635;DHT22;2330;48.158;11.816;2022-09-30T08:48:28;12.40;98.50
4635;DHT22;2330;48.158;11.816;2022-09-30T08:50:48;12.40;98.50
4635;DHT22;2330;48.158;11.816;2022-09-30T08:53:24;12.80;98.50
4635;DHT22;2330;48.158;11.816;2022-09-30T08:55:53;13.50;98.50
4635;DHT22;2330;48.158;11.816;2022-09-30T08:58:30;13.90;98.50
4635;DHT22;2330;48.158;11.816;2022-09-30T09:01:07;14.20;98.50
4635;DHT22;2330;48.158;11.816;2022-09-30T09:03:38;14.10;98.50
4635;DHT22;2330;48.158;11.816;2022-09-30T09:09:27;14.40;98.50
4635;DHT22;2330;48.158;11.816;2022-09-30T09:12:26;14.60;98.50
4635;DHT22;2330;48.158;11.816;2022-09-30T09:23:35;14.20;98.50
4635;DHT22;2330;48.158;11.816;2022-09-30T09:26:02;14.20;98.50
4635;DHT22;2330;48.158;11.816;2022-09-30T09:31:26;13.90;98.50
4635;DHT22;2330;48.158;11.816;2022-09-30T09:33:59;13.80;98.50
4635;DHT22;2330;48.158;11.816;2022-09-30T09:42:54;14.30;98.50
4635;DHT22;2330;48.158;11.816;2022-09-30T09:45:36;14.10;98.50
4635;DHT22;2330;48.158;11.816;2022-09-30T09:48:08;13.60;98.50
4635;DHT22;2330;48.158;11.816;2022-09-30T09:50:50;13.30;98.50
4635;DHT22;2330;48.158;11.816;2022-09-30T09:53:33;13.30;98.50
4635;DHT22;2330;48.158;11.816;2022-09-30T09:56:12;13.30;98.50
4635;DHT22;2330;48.158;11.816;2022-09-30T10:01:43;13.30;98.50
4635;DHT22;2330;48.158;11.816;2022-09-30T10:04:27;13.40;98.50
4635;DHT22;2330;48.158;11.816;2022-09-30T10:06:56;13.30;98.50
4635;DHT22;2330;48.158;11.816;2022-09-30T10:09:33;13.30;98.50
4635;DHT22;2330;48.158;11.816;2022-09-30T10:17:05;13.20;98.50
4635;DHT22;2330;48.158;11.816;2022-09-30T10:19:49;13.00;98.50
4635;DHT22;2330;48.158;11.816;2022-09-30T10:22:18;13.10;98.50
4635;DHT22;2330;48.158;11.816;2022-09-30T10:24:46;13.00;98.50
4635;DHT22;2330;48.158;11.816;2022-09-30T10:27:26;13.10;98.50
4635;DHT22;2330;48.158;11.816;2022-09-30T10:29:55;13.20;98.50
4635;DHT22;2330;48.158;11.816;2022-09-30T10:32:22;13.30;98.50
4635;DHT22;2330;48.158;11.816;2022-09-30T10:34:55;13.40;98.50
4635;DHT22;2330;48.158;11.816;2022-09-30T10:37:26;13.30;98.50
4635;DHT22;2330;48.158;11.816;2022-09-30T10:40:00;13.40;98.50
4635;DHT22;2330;48.158;11.816;2022-09-30T10:42:39;13.40;98.50
4635;DHT22;2330;48.158;11.816;2022-09-30T10:45:19;13.50;98.50
4635;DHT22;2330;48.158;11.816;2022-09-30T10:47:49;13.50;98.50
4635;DHT22;2330;48.158;11.816;2022-09-30T10:50:20;13.60;98.50
4635;DHT22;2330;48.158;11.816;2022-09-30T10:55:34;13.60;98.50
4635;DHT22;2330;48.158;11.816;2022-09-30T11:04:00;13.60;98.50
4635;DHT22;2330;48.158;11.816;2022-09-30T11:06:31;13.90;98.50
4635;DHT22;2330;48.158;11.816;2022-09-30T11:09:11;14.20;98.50
4635;DHT22;2330;48.158;11.816;2022-09-30T11:11:47;14.10;98.50
4635;DHT22;2330;48.158;11.816;2022-09-30T11:17:14;14.00;98.50
4635;DHT22;2330;48.158;11.816;2022-09-30T11:20:03;14.10;98.50
4635;DHT22;2330;48.158;11.816;2022-09-30T11:22:41;13.90;98.50
4635;DHT22;2330;48.158;11.816;2022-09-30T11:25:22;13.80;98.50
4635;DHT22;2330;48.158;11.816;2022-09-30T11:30:35;13.80;98.50
4635;DHT22;2330;48.158;11.816;2022-09-30T11:33:15;13.90;98.50
4635;DHT22;2330;48.158;11.816;2022-09-30T11:41:38;13.60;98.50
4635;DHT22;2330;48.158;11.816;2022-09-30T11:44:36;13.60;98.50
4635;DHT22;2330;48.158;11.816;2022-09-30T11:47:12;13.60;98.50
4635;DHT22;2330;48.158;11.816;2022-09-30T11:53:10;13.50;98.50
4635;DHT22;2330;48.158;11.816;2022-09-30T11:58:38;13.80;98.50
4635;DHT22;2330;48.158;11.816;2022-09-30T12:03:42;14.00;98.50
4635;DHT22;2330;48.158;11.816;2022-09-30T12:06:18;13.90;98.50
4635;DHT22;2330;48.158;11.816;2022-09-30T12:08:55;14.10;98.50
4635;DHT22;2330;48.158;11.816;2022-09-30T12:19:47;14.00;98.50
4635;DHT22;2330;48.158;11.816;2022-09-30T12:24:53;14.00;98.50
4635;DHT22;2330;48.158;11.816;2022-09-30T12:27:22;13.90;98.50
4635;DHT22;2330;48.158;11.816;2022-09-30T12:30:04;14.00;98.50
4635;DHT22;2330;48.158;11.816;2022-09-30T12:47:30;13.60;98.50
4635;DHT22;2330;48.158;11.816;2022-09-30T12:49:48;13.60;98.50
4635;DHT22;2330;48.158;11.816;2022-09-30T12:52:19;13.60;98.50
4635;DHT22;2330;48.158;11.816;2022-09-30T12:54:54;13.50;98.50
4635;DHT22;2330;48.158;11.816;2022-09-30T12:57:28;13.60;98.50
4635;DHT22;2330;48.158;11.816;2022-09-30T13:00:04;13.60;98.50
4635;DHT22;2330;48.158;11.816;2022-09-30T13:02:38;13.50;98.50
4635;DHT22;2330;48.158;11.816;2022-09-30T13:23:43;13.30;98.50
4635;DHT22;2330;48.158;11.816;2022-09-30T13:28:51;13.40;98.50
4635;DHT22;2330;48.158;11.816;2022-09-30T13:31:21;13.50;98.50
4635;DHT22;2330;48.158;11.816;2022-09-30T13:47:48;14.20;98.50
4635;DHT22;2330;48.158;11.816;2022-09-30T13:50:28;14.30;98.50
4635;DHT22;2330;48.158;11.816;2022-09-30T13:52:59;14.40;98.50
4635;DHT22;2330;48.158;11.816;2022-09-30T13:55:37;14.50;98.50
4635;DHT22;2330;48.158;11.816;2022-09-30T14:06:39;14.20;98.50
4635;DHT22;2330;48.158;11.816;2022-09-30T14:16:02;14.00;98.50
4635;DHT22;2330;48.158;11.816;2022-09-30T14:24:12;13.70;98.50
4635;DHT22;2330;48.158;11.816;2022-09-30T14:29:52;13.60;98.50
4635;DHT22;2330;48.158;11.816;2022-09-30T14:35:08;13.70;98.50
4635;DHT22;2330;48.158;11.816;2022-09-30T14:37:43;13.70;98.50
4635;DHT22;2330;48.158;11.816;2022-09-30T14:40:16;13.80;98.50
4635;DHT22;2330;48.158;11.816;2022-09-30T14:42:44;13.90;98.50
4635;DHT22;2330;48.158;11.816;2022-09-30T14:45:25;14.00;98.50
4635;DHT22;2330;48.158;11.816;2022-09-30T14:47:56;14.00;98.50
4635;DHT22;2330;48.158;11.816;2022-09-30T14:50:29;13.90;98.50
4635;DHT22;2330;48.158;11.816;2022-09-30T14:53:00;13.90;98.50
4635;DHT22;2330;48.158;11.816;2022-09-30T14:55:34;13.90;98.50
4635;DHT22;2330;48.158;11.816;2022-09-30T14:58:25;13.80;98.50
4635;DHT22;2330;48.158;11.816;2022-09-30T15:01:08;13.70;98.50
4635;DHT22;2330;48.158;11.816;2022-09-30T15:03:39;13.60;98.50
4635;DHT22;2330;48.158;11.816;2022-09-30T15:06:20;13.60;98.50
4635;DHT22;2330;48.158;11.816;2022-09-30T15:08:48;13.70;98.50
4635;DHT22;2330;48.158;11.816;2022-09-30T15:11:20;13.80;98.50
4635;DHT22;2330;48.158;11.816;2022-09-30T15:13:49;13.80;98.50
4635;DHT22;2330;48.158;11.816;2022-09-30T15:16:26;13.70;98.50
4635;DHT22;2330;48.158;11.816;2022-09-30T15:18:54;13.60;98.50
4635;DHT22;2330;48.158;11.816;2022-09-30T15:21:22;13.60;98.50
4635;DHT22;2330;48.158;11.816;2022-09-30T15:23:52;13.50;98.50
4635;DHT22;2330;48.158;11.816;2022-09-30T15:26:23;13.50;98.50
4635;DHT22;2330;48.158;11.816;2022-09-30T15:28:50;13.30;98.50
4635;DHT22;2330;48.158;11.816;2022-09-30T15:31:27;13.20;98.50
4635;DHT22;2330;48.158;11.816;2022-09-30T15:34:15;13.30;98.50
4635;DHT22;2330;48.158;11.816;2022-09-30T15:36:59;13.20;98.50
4635;DHT22;2330;48.158;11.816;2022-09-30T15:39:34;13.10;98.50
4635;DHT22;2330;48.158;11.816;2022-09-30T15:42:54;13.00;98.50
4635;DHT22;2330;48.158;11.816;2022-09-30T15:45:32;13.00;98.50
4635;DHT22;2330;48.158;11.816;2022-09-30T15:48:05;13.00;98.50
4635;DHT22;2330;48.158;11.816;2022-09-30T15:50:41;13.00;98.50
4635;DHT22;2330;48.158;11.816;2022-09-30T15:53:19;12.90;98.50
4635;DHT22;2330;48.158;11.816;2022-09-30T15:56:24;12.90;98.50
4635;DHT22;2330;48.158;11.816;2022-09-30T15:59:00;13.00;98.50
4635;DHT22;2330;48.158;11.816;2022-09-30T16:01:38;13.00;98.50
4635;DHT22;2330;48.158;11.816;2022-09-30T16:06:48;12.90;98.50
4635;DHT22;2330;48.158;11.816;2022-09-30T16:17:03;12.80;98.50
4635;DHT22;2330;48.158;11.816;2022-09-30T16:19:30;12.80;98.50
4635;DHT22;2330;48.158;11.816;2022-09-30T16:21:58;12.70;98.50
4635;DHT22;2330;48.158;11.816;2022-09-30T16:26:57;12.70;98.50
4635;DHT22;2330;48.158;11.816;2022-09-30T16:29:25;12.60;98.50
4635;DHT22;2330;48.158;11.816;2022-09-30T16:31:54;12.60;98.50
4635;DHT22;2330;48.158;11.816;2022-09-30T16:34:27;12.50;98.50
4635;DHT22;2330;48.158;11.816;2022-09-30T16:37:02;12.50;98.50
4635;DHT22;2330;48.158;11.816;2022-09-30T16:39:30;12.50;98.50
4635;DHT22;2330;48.158;11.816;2022-09-30T16:41:56;12.50;98.50
4635;DHT22;2330;48.158;11.816;2022-09-30T16:44:23;12.40;98.50
4635;DHT22;2330;48.158;11.816;2022-09-30T16:46:50;12.40;98.50
4635;DHT22;2330;48.158;11.816;2022-09-30T16:49:18;12.30;98.50
4635;DHT22;2330;48.158;11.816;2022-09-30T16:51:45;12.30;98.50
4635;DHT22;2330;48.158;11.816;2022-09-30T16:54:12;12.30;98.50
4635;DHT22;2330;48.158;11.816;2022-09-30T16:56:39;12.20;98.50
4635;DHT22;2330;48.158;11.816;2022-09-30T16:59:11;12.20;98.50
4635;DHT22;2330;48.158;11.816;2022-09-30T17:01:39;12.20;98.50
4635;DHT22;2330;48.158;11.816;2022-09-30T17:04:06;12.20;98.50
4635;DHT22;2330;48.158;11.816;2022-09-30T17:06:35;12.10;98.50
4635;DHT22;2330;48.158;11.816;2022-09-30T17:09:05;12.10;98.50
4635;DHT22;2330;48.158;11.816;2022-09-30T17:11:33;12.10;98.50
4635;DHT22;2330;48.158;11.816;2022-09-30T17:14:02;12.00;98.50
4635;DHT22;2330;48.158;11.816;2022-09-30T17:16:29;12.00;98.50
4635;DHT22;2330;48.158;11.816;2022-09-30T17:18:57;12.00;98.50
4635;DHT22;2330;48.158;11.816;2022-09-30T17:21:25;12.00;98.50
4635;DHT22;2330;48.158;11.816;2022-09-30T17:23:53;11.90;98.50
4635;DHT22;2330;48.158;11.816;2022-09-30T17:26:20;11.90;98.50
4635;DHT22;2330;48.158;11.816;2022-09-30T17:28:47;11.90;98.50
4635;DHT22;2330;48.158;11.816;2022-09-30T17:31:14;11.90;98.50
4635;DHT22;2330;48.158;11.816;2022-09-30T17:33:41;11.80;98.50
4635;DHT22;2330;48.158;11.816;2022-09-30T17:36:09;11.80;98.50
4635;DHT22;2330;48.158;11.816;2022-09-30T17:38:38;11.80;98.50
4635;DHT22;2330;48.158;11.816;2022-09-30T17:41:05;11.80;98.50
4635;DHT22;2330;48.158;11.816;2022-09-30T17:43:51;11.80;98.50
4635;DHT22;2330;48.158;11.816;2022-09-30T17:46:19;11.70;98.50
4635;DHT22;2330;48.158;11.816;2022-09-30T17:48:49;11.70;98.50
4635;DHT22;2330;48.158;11.816;2022-09-30T17:51:19;11.70;98.50
4635;DHT22;2330;48.158;11.816;2022-09-30T17:53:46;11.70;98.50
4635;DHT22;2330;48.158;11.816;2022-09-30T17:56:18;11.70;98.50
4635;DHT22;2330;48.158;11.816;2022-09-30T17:58:46;11.60;98.50
4635;DHT22;2330;48.158;11.816;2022-09-30T18:01:15;11.60;98.50
4635;DHT22;2330;48.158;11.816;2022-09-30T18:03:43;11.60;98.50
4635;DHT22;2330;48.158;11.816;2022-09-30T18:06:11;11.60;98.50
4635;DHT22;2330;48.158;11.816;2022-09-30T18:08:40;11.60;98.50
4635;DHT22;2330;48.158;11.816;2022-09-30T18:11:07;11.60;98.50
4635;DHT22;2330;48.158;11.816;2022-09-30T18:13:33;11.60;98.50
4635;DHT22;2330;48.158;11.816;2022-09-30T18:16:04;11.60;98.50
4635;DHT22;2330;48.158;11.816;2022-09-30T18:18:35;11.60;98.50
4635;DHT22;2330;48.158;11.816;2022-09-30T18:21:02;11.60;98.50
4635;DHT22;2330;48.158;11.816;2022-09-30T18:23:28;11.60;98.50
4635;DHT22;2330;48.158;11.816;2022-09-30T18:25:55;11.60;98.50
4635;DHT22;2330;48.158;11.816;2022-09-30T18:28:23;11.60;98.50
4635;DHT22;2330;48.158;11.816;2022-09-30T18:30:50;11.60;98.50
4635;DHT22;2330;48.158;11.816;2022-09-30T18:33:17;11.60;98.50
4635;DHT22;2330;48.158;11.816;2022-09-30T18:35:47;11.50;98.50
4635;DHT22;2330;48.158;11.816;2022-09-30T18:38:14;11.50;98.50
4635;DHT22;2330;48.158;11.816;2022-09-30T18:40:41;11.50;98.50
4635;DHT22;2330;48.158;11.816;2022-09-30T18:43:13;11.50;98.50
4635;DHT22;2330;48.158;11.816;2022-09-30T18:45:40;11.50;98.50
4635;DHT22;2330;48.158;11.816;2022-09-30T18:48:09;11.50;98.50
4635;DHT22;2330;48.158;11.816;2022-09-30T18:50:36;11.50;98.50
4635;DHT22;2330;48.158;11.816;2022-09-30T18:53:04;11.50;98.50
4635;DHT22;2330;48.158;11.816;2022-09-30T18:55:36;11.50;98.50
4635;DHT22;2330;48.158;11.816;2022-09-30T18:58:03;11.50;98.50
4635;DHT22;2330;48.158;11.816;2022-09-30T19:00:30;11.60;98.50
4635;DHT22;2330;48.158;11.816;2022-09-30T19:02:57;11.60;98.50
4635;DHT22;2330;48.158;11.816;2022-09-30T19:05:25;11.60;98.50
4635;DHT22;2330;48.158;11.816;2022-09-30T19:07:52;11.60;98.50
4635;DHT22;2330;48.158;11.816;2022-09-30T19:10:21;11.60;98.50
4635;DHT22;2330;48.158;11.816;2022-09-30T19:12:50;11.50;98.50
4635;DHT22;2330;48.158;11.816;2022-09-30T19:15:17;11.50;98.50
4635;DHT22;2330;48.158;11.816;2022-09-30T19:17:44;11.50;98.50
4635;DHT22;2330;48.158;11.816;2022-09-30T19:20:12;11.40;98.50
4635;DHT22;2330;48.158;11.816;2022-09-30T19:22:40;11.40;98.50
4635;DHT22;2330;48.158;11.816;2022-09-30T19:25:09;11.40;98.50
4635;DHT22;2330;48.158;11.816;2022-09-30T19:27:38;11.40;98.50
4635;DHT22;2330;48.158;11.816;2022-09-30T19:30:08;11.30;98.50
4635;DHT22;2330;48.158;11.816;2022-09-30T19:32:36;11.30;98.50
4635;DHT22;2330;48.158;11.816;2022-09-30T19:35:04;11.30;98.50
4635;DHT22;2330;48.158;11.816;2022-09-30T19:37:32;11.30;98.50
4635;DHT22;2330;48.158;11.816;2022-09-30T19:39:59;11.30;98.50
4635;DHT22;2330;48.158;11.816;2022-09-30T19:42:38;11.30;98.50
4635;DHT22;2330;48.158;11.816;2022-09-30T19:45:06;11.30;98.50
4635;DHT22;2330;48.158;11.816;2022-09-30T19:47:33;11.30;98.50
4635;DHT22;2330;48.158;11.816;2022-09-30T19:50:00;11.30;98.50
4635;DHT22;2330;48.158;11.816;2022-09-30T19:52:27;11.30;98.50
4635;DHT22;2330;48.158;11.816;2022-09-30T19:54:53;11.30;98.50